Time;durP1;ratioP1;P1;durP2;ratioP2;P2;SDS_P1;SDS_P2;PMS_P1;PMS_P2;Temp;Humidity;BMP_temperature;BMP_pressure;BME280_temperature;BME280_humidity;BME280_pressure;Samples;Min_cycle;Max_cycle;Signal;HPM_P1;HPM_P2
2021/01/09 00:02:11;;;;;;;15.73;9.35;;;1.60;92.10;;;;;;5067822;28;20030;-85
2021/01/09 00:04:46;;;;;;;;;;;;;;;;;;;;;
2021/01/09 00:07:15;;;;;;;13.70;6.90;;;1.60;92.10;;;;;;5094684;28;20121;-88
2021/01/09 00:09:45;;;;;;;9.18;6.15;;;1.50;92.10;;;;;;5075309;28;20036;-85
2021/01/09 00:12:12;;;;;;;9.88;6.13;;;1.50;92.10;;;;;;5052407;28;20467;-85
2021/01/09 00:14:41;;;;;;;9.02;6.28;;;1.60;92.20;;;;;;5076001;28;20048;-85
2021/01/09 00:17:22;;;;;;;8.63;6.57;;;1.50;92.10;;;;;;5074904;28;20495;-85
2021/01/09 00:19:50;;;;;;;9.23;6.18;;;1.50;92.10;;;;;;5078197;28;20028;-84
2021/01/09 00:22:19;;;;;;;8.48;6.05;;;1.50;92.10;;;;;;5075787;28;20399;-85
2021/01/09 00:24:45;;;;;;;9.25;6.25;;;1.50;92.10;;;;;;5068823;28;20038;-84
2021/01/09 00:27:13;;;;;;;9.60;6.57;;;1.50;92.10;;;;;;5092665;28;20126;-85
2021/01/09 00:29:43;;;;;;;9.95;6.72;;;1.40;92.10;;;;;;5078644;28;20093;-85
2021/01/09 00:32:10;;;;;;;10.90;6.93;;;1.50;92.10;;;;;;5074638;28;20020;-85
2021/01/09 00:34:48;;;;;;;11.05;6.75;;;1.40;92.10;;;;;;5077188;28;20028;-86
2021/01/09 00:37:16;;;;;;;10.68;7.15;;;1.50;92.10;;;;;;5076732;28;20028;-87
2021/01/09 00:39:45;;;;;;;10.23;6.75;;;1.40;92.10;;;;;;5055723;28;20090;-83
2021/01/09 00:42:11;;;;;;;12.07;7.13;;;1.40;92.10;;;;;;5067210;28;20032;-85
2021/01/09 00:44:39;;;;;;;9.82;6.20;;;1.40;92.10;;;;;;5082158;28;20365;-84
2021/01/09 00:47:07;;;;;;;8.13;5.68;;;1.40;92.10;;;;;;5056483;28;20127;-85
2021/01/09 00:49:32;;;;;;;10.13;6.53;;;1.40;92.10;;;;;;5070382;28;20091;-84
2021/01/09 00:52:03;;;;;;;8.90;6.00;;;1.30;92.00;;;;;;5083136;28;20024;-85
2021/01/09 00:54:31;;;;;;;11.88;6.22;;;1.30;92.00;;;;;;5054059;28;20033;-83
2021/01/09 00:57:00;;;;;;;11.60;6.72;;;1.30;92.00;;;;;;5103177;28;20380;-84
2021/01/09 00:59:28;;;;;;;12.65;6.18;;;1.20;91.90;;;;;;5085827;28;20399;-85
2021/01/09 01:01:54;;;;;;;9.68;6.03;;;1.20;91.90;;;;;;5069447;28;20387;-85
2021/01/09 01:04:20;;;;;;;7.68;5.43;;;1.20;91.90;;;;;;5064492;28;20032;-83
2021/01/09 01:06:49;;;;;;;9.32;6.20;;;1.20;91.90;;;;;;5088384;28;20367;-85
2021/01/09 01:09:21;;;;;;;10.07;6.38;;;1.10;91.90;;;;;;5071477;28;20028;-85
2021/01/09 01:11:46;;;;;;;9.98;6.28;;;1.10;91.90;;;;;;5055696;28;21138;-85
2021/01/09 01:14:22;;;;;;;;;;;;;;;;;;;;;
2021/01/09 01:17:00;;;;;;;9.05;6.00;;;1.10;91.90;;;;;;5073598;28;20034;-86
2021/01/09 01:19:31;;;;;;;8.70;5.63;;;1.00;91.80;;;;;;5075477;28;20378;-86
2021/01/09 01:22:07;;;;;;;9.10;6.00;;;1.00;91.80;;;;;;5097208;28;20522;-84
2021/01/09 01:24:37;;;;;;;9.65;6.55;;;0.90;92.00;;;;;;5085222;28;20466;-84
2021/01/09 01:27:03;;;;;;;7.75;5.50;;;0.90;91.80;;;;;;5075235;28;20509;-84
2021/01/09 01:29:31;;;;;;;7.82;5.75;;;0.90;91.80;;;;;;5052813;28;20488;-85
2021/01/09 01:32:00;;;;;;;8.52;6.10;;;0.90;91.80;;;;;;5069156;28;20016;-85
2021/01/09 01:34:26;;;;;;;12.00;6.40;;;0.90;92.00;;;;;;5055102;28;20028;-85
2021/01/09 01:36:54;;;;;;;10.10;6.67;;;0.80;91.70;;;;;;5072666;28;20383;-85
2021/01/09 01:39:21;;;;;;;9.33;6.50;;;0.80;91.70;;;;;;5070258;28;20376;-85
2021/01/09 01:41:52;;;;;;;7.60;5.95;;;0.80;91.70;;;;;;5071983;28;20585;-84
2021/01/09 01:44:18;;;;;;;9.60;6.50;;;0.80;91.70;;;;;;5065006;28;20028;-85
2021/01/09 01:46:44;;;;;;;10.67;6.73;;;0.70;91.70;;;;;;5076737;28;20040;-84
2021/01/09 01:49:10;;;;;;;10.10;6.63;;;0.70;91.70;;;;;;5089420;28;20020;-84
2021/01/09 01:51:36;;;;;;;9.80;6.40;;;0.70;91.70;;;;;;5104145;28;20464;-85
2021/01/09 01:54:02;;;;;;;10.80;6.65;;;0.70;91.70;;;;;;5062821;28;20024;-85
2021/01/09 01:56:29;;;;;;;9.30;6.57;;;0.70;91.70;;;;;;5062427;28;20351;-84
2021/01/09 01:58:57;;;;;;;12.57;7.63;;;0.60;91.70;;;;;;5061892;28;20063;-84
2021/01/09 02:01:26;;;;;;;10.55;7.10;;;0.60;91.70;;;;;;5098975;28;20036;-83
2021/01/09 02:03:55;;;;;;;9.53;6.60;;;0.60;91.70;;;;;;5074734;28;20024;-84
2021/01/09 02:06:29;;;;;;;10.03;6.50;;;0.60;91.70;;;;;;5073911;28;20024;-84
2021/01/09 02:09:08;;;;;;;9.97;6.63;;;0.60;91.70;;;;;;5067895;28;20021;-83
2021/01/09 02:11:46;;;;;;;9.03;6.00;;;0.60;91.70;;;;;;5074201;28;20071;-83
2021/01/09 02:14:29;;;;;;;8.77;6.22;;;0.50;91.60;;;;;;5092429;28;20105;-84
2021/01/09 02:16:57;;;;;;;7.97;6.17;;;0.50;91.70;;;;;;5077075;28;20087;-84
2021/01/09 02:19:26;;;;;;;9.33;6.20;;;0.50;91.60;;;;;;5076360;28;20077;-85
2021/01/09 02:21:59;;;;;;;10.30;6.50;;;0.50;91.70;;;;;;5075760;28;20392;-86
2021/01/09 02:24:27;;;;;;;9.57;6.37;;;0.50;91.70;;;;;;5081851;28;20024;-84
2021/01/09 02:27:02;;;;;;;9.10;5.80;;;0.50;91.70;;;;;;5067545;28;20081;-85
2021/01/09 02:29:34;;;;;;;8.40;5.73;;;0.50;91.70;;;;;;5072573;28;20032;-83
2021/01/09 02:32:06;;;;;;;8.27;5.63;;;0.50;91.70;;;;;;5075579;28;20153;-83
2021/01/09 02:34:51;;;;;;;10.13;6.32;;;0.50;91.60;;;;;;5073268;28;20188;-85
2021/01/09 02:37:18;;;;;;;9.37;6.07;;;0.50;91.60;;;;;;5070739;28;20024;-84
2021/01/09 02:39:46;;;;;;;8.50;6.37;;;0.40;91.60;;;;;;5069446;28;20115;-84
2021/01/09 02:42:12;;;;;;;10.27;5.60;;;0.40;91.60;;;;;;5071409;28;20088;-84
2021/01/09 02:44:43;;;;;;;8.60;5.57;;;0.40;91.60;;;;;;5073093;28;20421;-84
2021/01/09 02:47:09;;;;;;;9.60;6.10;;;0.40;91.60;;;;;;5076270;28;20503;-84
2021/01/09 02:49:34;;;;;;;10.73;6.35;;;0.30;91.60;;;;;;5071776;28;20169;-83
2021/01/09 02:52:03;;;;;;;9.63;6.57;;;0.30;91.60;;;;;;5071810;28;20081;-85
2021/01/09 02:54:31;;;;;;;10.77;6.53;;;0.40;91.60;;;;;;5078820;28;20073;-84
2021/01/09 02:56:57;;;;;;;8.83;6.27;;;0.30;91.60;;;;;;5067694;28;20016;-85
2021/01/09 02:59:25;;;;;;;9.30;6.23;;;0.30;91.60;;;;;;5085894;28;20028;-84
2021/01/09 03:01:51;;;;;;;11.13;6.97;;;0.20;91.60;;;;;;5074261;28;20511;-84
2021/01/09 03:04:26;;;;;;;12.60;6.80;;;0.30;91.60;;;;;;5073988;28;20170;-84
2021/01/09 03:06:51;;;;;;;12.47;6.53;;;0.30;91.60;;;;;;5076448;28;20031;-84
2021/01/09 03:09:20;;;;;;;10.40;7.03;;;0.20;91.60;;;;;;5074020;28;20043;-84
2021/01/09 03:11:46;;;;;;;13.43;7.70;;;0.20;91.60;;;;;;5053824;28;20024;-84
2021/01/09 03:14:12;;;;;;;11.77;7.17;;;0.20;91.60;;;;;;5073381;28;20039;-86
2021/01/09 03:16:38;;;;;;;11.23;7.13;;;0.30;91.60;;;;;;5073111;28;20028;-84
2021/01/09 03:19:04;;;;;;;11.37;7.00;;;0.20;91.60;;;;;;5078191;28;20028;-84
2021/01/09 03:21:30;;;;;;;12.07;7.20;;;0.20;91.60;;;;;;5074421;28;20498;-84
2021/01/09 03:24:02;;;;;;;11.97;6.80;;;0.20;91.60;;;;;;5076427;28;20024;-85
2021/01/09 03:26:30;;;;;;;12.50;7.63;;;0.20;91.70;;;;;;5080872;28;20020;-83
2021/01/09 03:28:56;;;;;;;11.37;6.97;;;0.20;91.70;;;;;;5073955;28;20056;-84
2021/01/09 03:31:24;;;;;;;11.40;6.67;;;0.20;91.70;;;;;;5072835;28;20028;-84
2021/01/09 03:33:50;;;;;;;10.03;6.53;;;0.20;91.70;;;;;;5075172;28;20468;-84
2021/01/09 03:36:26;;;;;;;;;;;;;;;;;;;;;
2021/01/09 03:38:54;;;;;;;11.07;6.83;;;0.20;91.70;;;;;;5103041;28;20042;-84
2021/01/09 03:41:20;;;;;;;11.33;6.47;;;0.20;91.80;;;;;;5073434;28;20024;-84
2021/01/09 03:43:46;;;;;;;9.80;6.40;;;0.10;91.70;;;;;;5073821;28;20039;-84
2021/01/09 03:46:12;;;;;;;10.93;6.40;;;0.20;91.80;;;;;;5047288;28;20043;-85
2021/01/09 03:48:40;;;;;;;9.70;6.00;;;0.20;91.80;;;;;;5067308;28;20028;-86
2021/01/09 03:51:09;;;;;;;11.13;6.13;;;0.20;91.80;;;;;;5066611;28;20525;-85
2021/01/09 03:53:34;;;;;;;8.60;5.77;;;0.10;91.80;;;;;;5067245;28;20038;-84
2021/01/09 03:56:02;;;;;;;10.90;5.83;;;0.10;91.80;;;;;;5051772;28;20115;-84
2021/01/09 03:58:28;;;;;;;8.80;5.47;;;0.10;91.80;;;;;;5073193;28;20047;-84
2021/01/09 04:00:54;;;;;;;8.20;5.63;;;0.10;91.80;;;;;;5048544;28;20358;-85
2021/01/09 04:03:25;;;;;;;8.80;5.33;;;0.10;91.80;;;;;;5076636;28;20043;-84
2021/01/09 04:05:53;;;;;;;7.78;5.57;;;0.10;91.80;;;;;;5073270;28;20020;-83
2021/01/09 04:08:19;;;;;;;10.33;6.37;;;0.10;91.80;;;;;;5073599;28;20062;-82
2021/01/09 04:10:44;;;;;;;8.30;5.47;;;0.10;91.80;;;;;;5068882;28;20051;-85
2021/01/09 04:13:10;;;;;;;10.10;5.90;;;0.10;91.80;;;;;;5070720;28;20035;-83
2021/01/09 04:15:39;;;;;;;10.47;5.80;;;0.10;91.80;;;;;;5066779;28;20024;-84
2021/01/09 04:18:04;;;;;;;9.57;6.30;;;0.10;91.70;;;;;;5076589;28;20101;-84
2021/01/09 04:20:31;;;;;;;11.13;6.13;;;0.10;91.70;;;;;;5076120;28;20023;-84
2021/01/09 04:23:00;;;;;;;8.80;5.77;;;0.00;91.70;;;;;;5054723;28;20107;-84
2021/01/09 04:25:33;;;;;;;8.73;5.47;;;0.00;91.70;;;;;;5081296;28;20108;-83
2021/01/09 04:28:01;;;;;;;9.00;5.43;;;0.00;91.70;;;;;;5057106;28;20028;-84
2021/01/09 04:30:27;;;;;;;8.33;5.80;;;0.00;91.70;;;;;;5082525;28;20032;-84
2021/01/09 04:32:53;;;;;;;7.60;5.43;;;0.00;91.70;;;;;;5049757;28;20124;-84
2021/01/09 04:35:19;;;;;;;9.57;5.00;;;0.00;91.70;;;;;;5056312;28;20020;-87
2021/01/09 04:37:44;;;;;;;8.07;5.30;;;0.00;91.70;;;;;;5056728;28;20040;-84
2021/01/09 04:40:13;;;;;;;9.13;5.80;;;0.00;91.70;;;;;;5079084;28;20024;-85
2021/01/09 04:42:38;;;;;;;8.80;5.30;;;-0.10;91.70;;;;;;5056139;28;20035;-83
2021/01/09 04:45:07;;;;;;;8.53;5.07;;;-0.10;91.70;;;;;;5056451;28;20024;-84
2021/01/09 04:47:35;;;;;;;6.17;4.43;;;-0.10;91.70;;;;;;5060330;28;20035;-84
2021/01/09 04:50:04;;;;;;;7.87;4.97;;;-0.10;91.70;;;;;;5056259;28;20029;-83
2021/01/09 04:52:31;;;;;;;8.53;5.20;;;-0.10;91.70;;;;;;5038468;28;20507;-83
2021/01/09 04:54:59;;;;;;;8.90;4.90;;;-0.10;91.70;;;;;;5055175;28;20106;-84
2021/01/09 04:57:34;;;;;;;6.53;4.80;;;-0.10;91.70;;;;;;5054495;28;20029;-84
2021/01/09 04:59:59;;;;;;;5.97;4.17;;;-0.10;91.90;;;;;;5060793;28;20020;-83
2021/01/09 05:02:29;;;;;;;6.87;4.53;;;-0.10;91.70;;;;;;5061000;28;20027;-83
2021/01/09 05:04:55;;;;;;;6.10;4.67;;;-0.10;91.70;;;;;;5060814;28;20383;-86
2021/01/09 05:07:24;;;;;;;6.80;4.63;;;-0.20;91.70;;;;;;5060938;28;20024;-86
2021/01/09 05:10:03;;;;;;;7.30;4.90;;;-0.20;91.70;;;;;;5034041;28;20176;-84
2021/01/09 05:12:40;;;;;;;10.63;5.20;;;-0.20;91.70;;;;;;5050481;28;20032;-84
2021/01/09 05:15:07;;;;;;;7.03;4.97;;;-0.20;91.70;;;;;;5058351;28;20028;-85
2021/01/09 05:17:37;;;;;;;11.20;5.20;;;-0.20;91.70;;;;;;5057990;28;20033;-84
2021/01/09 05:20:12;;;;;;;8.63;5.33;;;-0.20;91.70;;;;;;5056106;28;20028;-85
2021/01/09 05:22:39;;;;;;;9.83;5.37;;;-0.20;91.70;;;;;;5065907;28;20043;-84
2021/01/09 05:25:06;;;;;;;10.80;5.67;;;-0.20;91.70;;;;;;5073338;28;20032;-84
2021/01/09 05:27:34;;;;;;;10.70;5.10;;;-0.20;91.80;;;;;;5091792;28;20116;-84
2021/01/09 05:29:59;;;;;;;11.00;5.03;;;-0.20;91.80;;;;;;5075094;28;20047;-83
2021/01/09 05:32:25;;;;;;;9.83;5.27;;;-0.20;91.80;;;;;;5056352;28;20033;-84
2021/01/09 05:34:54;;;;;;;10.33;4.77;;;-0.30;91.80;;;;;;5077765;28;20020;-84
2021/01/09 05:37:22;;;;;;;11.03;4.37;;;-0.30;91.90;;;;;;5058248;28;20446;-84
2021/01/09 05:39:53;;;;;;;17.17;5.10;;;-0.30;91.90;;;;;;5085017;28;20046;-84
2021/01/09 05:42:27;;;;;;;11.23;4.30;;;-0.30;91.90;;;;;;5091642;28;20024;-85
2021/01/09 05:44:57;;;;;;;12.23;5.07;;;-0.30;92.00;;;;;;5073733;28;20285;-85
2021/01/09 05:47:27;;;;;;;12.30;5.40;;;-0.30;92.00;;;;;;5075094;28;20078;-85
2021/01/09 05:49:57;;;;;;;11.70;5.13;;;-0.30;92.00;;;;;;5042357;28;20063;-83
2021/01/09 05:52:24;;;;;;;13.93;5.20;;;-0.30;92.20;;;;;;5084432;28;20115;-84
2021/01/09 05:54:59;;;;;;;11.20;4.93;;;-0.30;92.00;;;;;;5075473;28;20024;-83
2021/01/09 05:57:33;;;;;;;7.53;4.93;;;-0.30;92.00;;;;;;5074179;28;20085;-86
2021/01/09 06:00:11;;;;;;;7.93;4.63;;;-0.40;92.00;;;;;;5078529;28;20063;-84
2021/01/09 06:03:01;;;;;;;6.57;4.73;;;-0.40;92.00;;;;;;5063867;28;20028;-84
2021/01/09 06:05:49;;;;;;;8.90;4.40;;;-0.30;92.10;;;;;;5074183;28;20027;-84
2021/01/09 06:08:28;;;;;;;5.97;4.53;;;-0.40;92.00;;;;;;5074248;28;20032;-84
2021/01/09 06:11:01;;;;;;;5.83;4.17;;;-0.30;92.00;;;;;;5073684;28;20023;-83
2021/01/09 06:13:31;;;;;;;6.07;4.57;;;-0.30;92.10;;;;;;5078497;28;20070;-84
2021/01/09 06:16:14;;;;;;;;;;;;;;;;;;;;;
2021/01/09 06:18:45;;;;;;;6.13;4.23;;;-0.40;92.00;;;;;;5092922;28;20026;-84
2021/01/09 06:21:11;;;;;;;5.63;4.50;;;-0.40;92.00;;;;;;5078973;28;20040;-84
2021/01/09 06:23:40;;;;;;;6.00;4.40;;;-0.30;92.00;;;;;;5074658;28;20035;-83
2021/01/09 06:26:08;;;;;;;5.97;4.27;;;-0.40;92.00;;;;;;5074793;28;20099;-84
2021/01/09 06:28:49;;;;;;;6.70;4.33;;;-0.40;92.00;;;;;;5081555;28;20528;-84
2021/01/09 06:31:20;;;;;;;5.43;4.22;;;-0.40;92.00;;;;;;5084801;28;20123;-83
2021/01/09 06:33:56;;;;;;;5.60;4.40;;;-0.40;92.00;;;;;;5081823;28;20452;-83
2021/01/09 06:36:42;;;;;;;6.43;4.43;;;-0.40;92.00;;;;;;5074285;28;20028;-82
2021/01/09 06:39:12;;;;;;;8.40;4.87;;;-0.40;92.00;;;;;;5074321;28;20437;-82
2021/01/09 06:41:39;;;;;;;5.93;4.37;;;-0.40;92.00;;;;;;5084351;28;20058;-83
2021/01/09 06:44:07;;;;;;;6.40;4.83;;;-0.40;92.00;;;;;;5075326;28;20016;-82
2021/01/09 06:46:42;;;;;;;7.70;4.83;;;-0.40;92.00;;;;;;5077611;28;20036;-82
2021/01/09 06:49:30;;;;;;;9.00;4.57;;;-0.40;92.00;;;;;;5085829;28;20380;-82
2021/01/09 06:52:01;;;;;;;5.87;4.40;;;-0.40;92.00;;;;;;5079752;28;20093;-82
2021/01/09 06:54:39;;;;;;;6.88;4.95;;;-0.40;92.00;;;;;;5092036;28;20713;-81
2021/01/09 06:57:05;;;;;;;7.07;4.50;;;-0.40;92.00;;;;;;5079359;28;20020;-82
2021/01/09 06:59:38;;;;;;;6.90;4.70;;;-0.40;92.00;;;;;;5073189;28;20070;-82
2021/01/09 07:02:21;;;;;;;6.63;4.73;;;-0.30;92.00;;;;;;5078647;28;20021;-83
2021/01/09 07:05:01;;;;;;;5.53;4.17;;;-0.30;92.10;;;;;;5066978;28;20448;-82
2021/01/09 07:07:36;;;;;;;6.73;4.67;;;-0.30;92.00;;;;;;5065455;28;20123;-84
2021/01/09 07:10:18;;;;;;;8.90;5.30;;;-0.30;92.00;;;;;;5078641;28;20035;-82
2021/01/09 07:13:07;;;;;;;6.00;4.60;;;-0.40;91.90;;;;;;5077841;28;20051;-82
2021/01/09 07:15:35;;;;;;;6.60;4.93;;;-0.30;91.90;;;;;;5069984;28;20036;-82
2021/01/09 07:18:06;;;;;;;7.33;4.80;;;-0.40;91.90;;;;;;5073956;28;20089;-82
2021/01/09 07:20:44;;;;;;;7.97;4.63;;;-0.40;91.90;;;;;;5093084;28;20111;-84
2021/01/09 07:23:15;;;;;;;6.90;4.50;;;-0.40;91.90;;;;;;5069991;28;20099;-82
2021/01/09 07:25:54;;;;;;;6.10;4.30;;;-0.40;91.90;;;;;;5073909;28;20020;-83
2021/01/09 07:28:24;;;;;;;5.80;4.30;;;-0.40;91.90;;;;;;5099726;28;20028;-82
2021/01/09 07:31:06;;;;;;;5.87;4.20;;;-0.40;91.90;;;;;;5081439;28;20425;-82
2021/01/09 07:33:33;;;;;;;7.70;4.83;;;-0.40;91.90;;;;;;5067651;28;20129;-86
2021/01/09 07:36:00;;;;;;;6.37;4.53;;;-0.40;91.90;;;;;;5069379;28;20047;-82
2021/01/09 07:38:28;;;;;;;5.93;4.17;;;-0.40;91.90;;;;;;5081188;28;20059;-82
2021/01/09 07:41:00;;;;;;;7.50;4.93;;;-0.40;92.00;;;;;;5084254;28;20456;-83
2021/01/09 07:43:45;;;;;;;7.57;4.90;;;-0.30;92.00;;;;;;5096313;28;20548;-82
2021/01/09 07:46:30;;;;;;;7.07;4.80;;;-0.30;92.00;;;;;;5079220;28;20055;-82
2021/01/09 07:49:00;;;;;;;7.17;4.40;;;-0.30;92.10;;;;;;5066081;28;20024;-86
2021/01/09 07:51:47;;;;;;;5.80;4.23;;;-0.30;92.00;;;;;;5068822;28;20395;-83
2021/01/09 07:54:38;;;;;;;8.30;5.13;;;-0.20;92.10;;;;;;5068081;28;20028;-83
2021/01/09 07:57:18;;;;;;;9.33;4.60;;;-0.20;92.10;;;;;;5080357;28;20075;-83
2021/01/09 08:00:08;;;;;;;8.07;5.50;;;-0.20;92.10;;;;;;5094414;28;20114;-83
2021/01/09 08:02:36;;;;;;;7.37;4.80;;;-0.20;92.10;;;;;;5092818;28;20062;-85
2021/01/09 08:05:11;;;;;;;7.27;5.03;;;-0.10;92.10;;;;;;5076116;28;20020;-84
2021/01/09 08:07:41;;;;;;;8.20;4.73;;;-0.10;92.10;;;;;;5076471;28;20024;-85
2021/01/09 08:10:19;;;;;;;8.23;4.90;;;-0.10;92.20;;;;;;5088662;28;20062;-85
2021/01/09 08:12:46;;;;;;;5.27;4.17;;;-0.10;92.20;;;;;;5073725;28;20053;-84
2021/01/09 08:15:12;;;;;;;7.27;5.07;;;-0.10;92.20;;;;;;5076996;28;20025;-84
2021/01/09 08:17:38;;;;;;;7.10;4.77;;;-0.10;92.20;;;;;;5059602;28;20020;-83
2021/01/09 08:20:14;;;;;;;6.83;4.73;;;0.00;92.30;;;;;;5059987;28;20340;-84
2021/01/09 08:22:56;;;;;;;7.53;4.67;;;0.00;92.30;;;;;;5056561;28;20123;-84
2021/01/09 08:25:26;;;;;;;6.83;4.67;;;0.00;92.30;;;;;;5078377;28;20016;-83
2021/01/09 08:27:57;;;;;;;8.13;4.90;;;0.10;92.30;;;;;;5080710;28;20490;-85
2021/01/09 08:30:27;;;;;;;6.80;5.05;;;0.10;92.30;;;;;;5084410;28;20126;-84
2021/01/09 08:33:06;;;;;;;6.73;4.97;;;0.10;92.30;;;;;;5086313;28;20058;-84
2021/01/09 08:35:33;;;;;;;6.60;4.63;;;0.10;92.30;;;;;;5089552;28;20066;-84
2021/01/09 08:38:00;;;;;;;7.73;5.07;;;0.10;92.30;;;;;;5100034;28;20031;-84
2021/01/09 08:40:26;;;;;;;8.73;5.30;;;0.20;92.30;;;;;;5067494;28;20467;-85
2021/01/09 08:43:23;;;;;;;7.17;5.30;;;0.10;92.30;;;;;;5059532;28;20119;-84
2021/01/09 08:45:55;;;;;;;9.13;5.70;;;0.20;92.30;;;;;;5097830;28;20027;-84
2021/01/09 08:48:32;;;;;;;8.80;5.70;;;0.20;92.30;;;;;;5112670;28;20019;-84
2021/01/09 08:51:07;;;;;;;6.33;5.03;;;0.20;92.30;;;;;;5100979;28;20032;-84
2021/01/09 08:54:11;;;;;;;;;;;;;;;;;;;;;
2021/01/09 08:56:40;;;;;;;7.57;5.20;;;0.20;92.40;;;;;;5098027;28;20476;-85
2021/01/09 08:59:17;;;;;;;8.60;5.97;;;0.30;92.40;;;;;;5078490;28;20420;-84
2021/01/09 09:01:55;;;;;;;9.13;6.43;;;0.30;92.40;;;;;;5106538;28;20107;-84
2021/01/09 09:04:24;;;;;;;13.37;7.10;;;0.40;92.50;;;;;;5100502;28;20370;-84
2021/01/09 09:07:19;;;;;;;12.67;6.20;;;0.40;92.50;;;;;;5079174;28;20024;-85
2021/01/09 09:09:47;;;;;;;9.13;5.90;;;0.50;92.50;;;;;;5069757;28;20040;-85
2021/01/09 09:12:22;;;;;;;10.17;6.03;;;0.50;92.50;;;;;;5099666;28;20472;-85
2021/01/09 09:15:25;;;;;;;9.60;5.87;;;0.50;92.50;;;;;;5092820;28;20020;-84
2021/01/09 09:18:00;;;;;;;6.80;5.10;;;0.60;92.60;;;;;;5074042;28;20124;-86
2021/01/09 09:23:42;;;;;;;10.25;5.68;;;0.70;92.60;;;;;;5080335;28;20560;-86
2021/01/09 09:26:36;;;;;;;10.48;6.22;;;0.80;92.70;;;;;;5071854;28;20077;-88
2021/01/09 09:29:25;;;;;;;10.83;6.13;;;0.80;92.70;;;;;;5076003;28;20047;-86
2021/01/09 09:32:17;;;;;;;9.85;5.75;;;0.80;92.60;;;;;;5056685;28;20032;-86
2021/01/09 09:34:59;;;;;;;8.07;5.70;;;0.80;92.70;;;;;;5084076;28;20124;-86
2021/01/09 09:37:47;;;;;;;8.77;6.03;;;0.90;92.70;;;;;;5066863;28;20029;-87
2021/01/09 09:41:07;;;;;;;9.60;6.18;;;0.90;92.70;;;;;;5061298;28;20627;-87
2021/01/09 09:44:17;;;;;;;7.43;5.57;;;0.90;92.70;;;;;;5074864;28;20074;-87
2021/01/09 09:46:53;;;;;;;11.27;6.18;;;1.00;92.70;;;;;;5052606;28;20062;-86
2021/01/09 09:49:28;;;;;;;11.57;6.07;;;1.00;92.70;;;;;;5083517;28;20092;-86
2021/01/09 09:52:16;;;;;;;12.07;6.40;;;1.00;92.70;;;;;;5078363;28;20086;-86
2021/01/09 09:55:10;;;;;;;13.50;6.93;;;1.00;92.70;;;;;;5074684;28;21789;-85
2021/01/09 09:58:18;;;;;;;;;;;;;;;;;;;;;
2021/01/09 10:00:59;;;;;;;;;;;;;;;;;;;;;
2021/01/09 10:03:47;;;;;;;16.98;9.07;;;1.00;92.70;;;;;;5067904;28;20038;-86
2021/01/09 10:06:15;;;;;;;16.88;9.05;;;1.10;92.70;;;;;;5087320;28;20035;-86
2021/01/09 10:08:44;;;;;;;13.32;7.90;;;1.10;92.70;;;;;;5070274;28;20119;-87
2021/01/09 10:11:29;;;;;;;;;;;;;;;;;;;;;
2021/01/09 10:14:11;;;;;;;10.75;7.20;;;1.20;92.80;;;;;;5064716;28;20038;-85
2021/01/09 10:16:45;;;;;;;10.88;6.82;;;1.20;92.80;;;;;;5067423;28;20028;-86
2021/01/09 10:19:20;;;;;;;11.38;7.65;;;1.30;92.80;;;;;;5076329;28;20028;-87
2021/01/09 10:22:05;;;;;;;11.02;6.55;;;1.20;92.80;;;;;;5049859;28;20063;-86
2021/01/09 10:24:43;;;;;;;;;;;;;;;;;;;;;
2021/01/09 10:27:21;;;;;;;10.77;7.47;;;1.40;92.90;;;;;;5054214;28;20024;-87
2021/01/09 10:29:51;;;;;;;11.20;6.70;;;1.50;92.90;;;;;;5042798;28;20095;-87
2021/01/09 10:32:38;;;;;;;;;;;;;;;;;;;;;
2021/01/09 10:35:42;;;;;;;11.55;6.95;;;1.60;92.90;;;;;;5041392;28;20036;-87
2021/01/09 10:38:26;;;;;;;;;;;;;;;;;;;;;
2021/01/09 10:41:17;;;;;;;9.50;6.60;;;1.60;92.90;;;;;;5071555;28;20029;-87
2021/01/09 10:44:03;;;;;;;11.45;7.18;;;1.60;92.80;;;;;;5037331;28;20047;-87
2021/01/09 10:46:44;;;;;;;;;;;;;;;;;;;;;
2021/01/09 10:52:35;;;;;;;11.75;6.95;;;1.70;92.80;;;;;;5014161;28;20052;-87
2021/01/09 10:55:20;;;;;;;;;;;;;;;;;;;;;
2021/01/09 10:57:54;;;;;;;10.25;6.88;;;1.70;92.80;;;;;;5069091;28;20036;-87
2021/01/09 11:00:56;;;;;;;10.15;6.88;;;1.70;92.90;;;;;;5037553;28;20074;-86
2021/01/09 11:03:45;;;;;;;;;;;1.80;92.90;;;;;;5051522;28;20048;-87
2021/01/09 11:07:03;;;;;;;10.40;6.65;;;1.80;92.90;;;;;;5062765;28;19920;-86
2021/01/09 11:09:49;;;;;;;;;;;;;;;;;;;;;
2021/01/09 11:12:20;;;;;;;7.90;6.22;;;1.80;92.90;;;;;;5059524;28;20036;-85
2021/01/09 11:15:12;;;;;;;8.68;6.30;;;1.90;92.90;;;;;;5065466;28;20049;-85
2021/01/09 11:17:51;;;;;;;;;;;;;;;;;;;;;
2021/01/09 11:21:26;;;;;;;;;;;;;;;;;;;;;
2021/01/09 11:24:26;;;;;;;7.63;5.72;;;2.00;92.90;;;;;;5065826;28;20042;-88
2021/01/09 11:27:46;;;;;;;;;;;;;;;;;;;;;
2021/01/09 11:30:39;;;;;;;10.55;6.38;;;2.10;92.90;;;;;;5069474;28;20349;-86
2021/01/09 11:33:11;;;;;;;11.10;5.93;;;2.20;92.90;;;;;;5055826;28;20036;-87
2021/01/09 11:35:40;;;;;;;8.68;5.78;;;2.20;92.80;;;;;;5064251;28;20052;-85
2021/01/09 11:38:46;;;;;;;8.85;5.55;;;2.20;92.80;;;;;;5052094;28;20035;-87
2021/01/09 11:41:14;;;;;;;6.45;4.82;;;2.30;92.80;;;;;;5074349;28;20043;-86
2021/01/09 11:43:46;;;;;;;7.70;4.95;;;2.30;92.90;;;;;;5062047;28;20357;-86
2021/01/09 11:46:29;;;;;;;8.93;5.25;;;2.30;92.80;;;;;;5063577;28;20013;-87
2021/01/09 11:49:27;;;;;;;;;;;;;;;;;;;;;
2021/01/09 11:52:35;;;;;;;11.07;4.63;;;2.40;92.90;;;;;;5058034;28;20035;-87
2021/01/09 12:03:27;;;;;;;;;;;;;;;;;;;;;
2021/01/09 12:09:47;;;;;;;;;;;;;;;;;;;;;
2021/01/09 12:12:41;;;;;;;15.80;9.15;;;2.80;92.80;;;;;;5045168;28;20029;-88
2021/01/09 12:15:27;;;;;;;37.53;22.25;;;2.90;92.80;;;;;;5057070;28;20021;-87
2021/01/09 12:18:14;;;;;;;;;;;;;;;;;;;;;
2021/01/09 12:21:31;;;;;;;28.75;16.10;;;2.90;92.80;;;;;;5041703;28;20031;-87
2021/01/09 12:27:23;;;;;;;12.32;7.35;;;2.90;92.70;;;;;;4955029;28;20094;-86
2021/01/09 12:30:26;;;;;;;10.18;6.38;;;3.00;92.80;;;;;;5058503;28;20024;-87
2021/01/09 12:33:55;;;;;;;10.68;6.20;;;3.00;93.00;;;;;;5058622;28;20074;-88
2021/01/09 12:36:51;;;;;;;;;;;;;;;;;;;;;
2021/01/09 12:39:38;;;;;;;8.05;4.82;;;3.10;92.80;;;;;;5048568;28;20035;-86
2021/01/09 12:42:17;;;;;;;7.20;5.30;;;3.20;92.70;;;;;;5037992;28;20040;-86
2021/01/09 12:44:45;;;;;;;9.38;5.88;;;3.20;92.70;;;;;;5022151;28;20051;-88
2021/01/09 12:47:38;;;;;;;;;;;;;;;;;;;;;
2021/01/09 12:52:58;;;;;;;9.57;5.20;;;3.30;92.70;;;;;;5037963;28;20472;-86
2021/01/09 12:55:31;;;;;;;10.48;5.90;;;3.40;92.70;;;;;;5037668;28;20017;-86
2021/01/09 12:58:20;;;;;;;20.25;10.15;;;3.40;92.70;;;;;;5020641;28;20036;-88
2021/01/09 13:01:19;;;;;;;;;;;;;;;;;;;;;
2021/01/09 13:10:27;;;;;;;8.48;5.07;;;3.60;92.60;;;;;;5064139;28;20044;-87
2021/01/09 13:13:27;;;;;;;;;;;;;;;;;;;;;
2021/01/09 13:16:06;;;;;;;9.27;4.68;;;3.70;92.60;;;;;;5058362;28;20043;-87
2021/01/09 13:18:38;;;;;;;7.97;4.40;;;3.70;92.60;;;;;;5040942;28;20384;-88
2021/01/09 13:21:29;;;;;;;8.48;5.15;;;3.70;92.60;;;;;;5041436;28;20039;-86
2021/01/09 13:23:55;;;;;;;16.25;8.63;;;3.80;92.60;;;;;;5055108;28;20369;-87
2021/01/09 13:26:37;;;;;;;;;;;;;;;;;;;;;
2021/01/09 13:29:11;;;;;;;10.35;6.63;;;3.80;92.60;;;;;;5059104;28;20039;-87
2021/01/09 13:31:51;;;;;;;10.82;5.50;;;3.90;92.60;;;;;;5057282;28;20028;-86
2021/01/09 13:34:29;;;;;;;9.80;4.70;;;3.90;92.60;;;;;;5057953;28;20056;-86
2021/01/09 13:37:09;;;;;;;6.72;3.42;;;4.00;92.60;;;;;;5056908;28;20024;-87
2021/01/09 13:40:05;;;;;;;7.43;3.00;;;4.00;92.50;;;;;;5056817;28;20036;-88
2021/01/09 13:42:40;;;;;;;7.20;2.60;;;4.10;92.50;;;;;;5068211;28;20125;-86
2021/01/09 13:45:16;;;;;;;9.63;2.70;;;4.20;92.40;;;;;;5057351;28;20138;-85
2021/01/09 13:48:05;;;;;;;6.90;2.60;;;4.20;92.30;;;;;;5056966;28;20123;-86
2021/01/09 13:50:54;;;;;;;8.38;2.45;;;4.30;92.30;;;;;;5041055;28;20114;-86
2021/01/09 13:53:59;;;;;;;;;;;;;;;;;;;;;
2021/01/09 13:57:00;;;;;;;;;;;;;;;;;;;;;
2021/01/09 13:59:38;;;;;;;;;;;;;;;;;;;;;
2021/01/09 14:02:43;;;;;;;;;;;;;;;;;;;;;
2021/01/09 14:06:24;;;;;;;;;;;;;;;;;;;;;
2021/01/09 14:09:46;;;;;;;6.85;2.53;;;4.60;91.60;;;;;;5012322;28;20025;-87
2021/01/09 14:12:32;;;;;;;;;;;;;;;;;;;;;
2021/01/09 14:15:24;;;;;;;;;;;;;;;;;;;;;
2021/01/09 14:18:28;;;;;;;3.92;2.20;;;4.60;91.60;;;;;;5073923;28;20367;-87
2021/01/09 14:25:02;;;;;;;4.40;2.05;;;4.60;91.60;;;;;;5015465;28;20548;-87
2021/01/09 14:28:09;;;;;;;;;;;;;;;;;;;;;
2021/01/09 14:31:31;;;;;;;;;;;;;;;;;;;;;
2021/01/09 14:33:59;;;;;;;4.10;1.90;;;4.50;91.60;;;;;;5067785;28;20024;-86
2021/01/09 14:36:46;;;;;;;;;;;;;;;;;;;;;
2021/01/09 14:39:36;;;;;;;5.53;2.33;;;4.40;91.70;;;;;;5038474;28;20039;-86
2021/01/09 14:42:31;;;;;;;5.93;2.60;;;4.50;91.70;;;;;;5021189;28;20032;-88
2021/01/09 14:44:59;;;;;;;5.38;2.33;;;4.50;91.60;;;;;;5033217;28;20122;-86
2021/01/09 14:48:10;;;;;;;5.78;2.47;;;4.50;91.60;;;;;;5041392;28;20570;-86
2021/01/09 14:51:01;;;;;;;6.80;2.05;;;4.40;91.60;;;;;;5074146;28;20032;-86
2021/01/09 14:53:47;;;;;;;5.53;2.50;;;4.40;91.60;;;;;;5043351;28;20364;-85
2021/01/09 14:56:22;;;;;;;6.18;2.03;;;4.40;91.60;;;;;;5046425;28;20033;-86
2021/01/09 14:59:14;;;;;;;5.82;2.10;;;4.40;91.60;;;;;;5055644;28;20048;-86
2021/01/09 15:01:51;;;;;;;3.65;2.00;;;4.40;91.60;;;;;;5049836;28;20391;-86